Slidell, Texas
Current Conditions -  °F | °C
As of 5:15 PM on Saturday 25 Oct 2014 (Local Time) from KLUD Reporting Station
Clear Clear  
Wind Chill: 87°   Ceiling: Unl
Heat Index: 87°   Visibility: 7mi
Dew Point: 53°   Wind: 5mph
Humidity: 31%   Direction: 200°SSW
Pressure: 30.07"   Gusts: NA
Location:  33.36°N, 97.39°W
Report Text: KLUD 252215Z AUTO 20004KT 7SM CLR 31/12 A3007 RMK AO2 T03070119
Loading
Personal Weather Stations






























Interactive Weather Map
Tropical Storm Tracking
New forecast layout! Learn more

10-Day Weather Forecast

Advertisements
Track Severe Weather on mobile